createdAt,value
2023-03-13T00:00:32.385Z,30.3
2023-03-13T00:05:34.173Z,12.3
2023-03-13T00:10:33.706Z,24.1
2023-03-13T00:15:33.467Z,19.8
2023-03-13T00:20:31.055Z,8.1
2023-03-13T00:25:30.802Z,12.2
2023-03-13T00:35:30.200Z,10.4
2023-03-13T00:45:29.468Z,8.8
2023-03-13T00:50:29.183Z,4.3
2023-03-13T00:55:28.826Z,4.9
2023-03-13T01:00:30.600Z,2.1
2023-03-13T01:05:28.155Z,3.2
2023-03-13T01:10:27.800Z,4.6
2023-03-13T01:15:27.495Z,3.2
2023-03-13T01:20:27.162Z,0.8
2023-03-13T01:25:28.804Z,2.6
2023-03-13T01:35:26.164Z,1.1
2023-03-13T01:45:25.277Z,1.9
2023-03-13T01:50:24.878Z,6.3
2023-03-13T01:55:24.826Z,1.2
2023-03-13T02:05:23.746Z,3.7
2023-03-13T02:10:23.386Z,1.0
2023-03-13T02:15:23.068Z,0.8
2023-03-13T02:20:22.730Z,8.4
2023-03-13T02:25:22.390Z,4.4
2023-03-13T02:30:21.972Z,2.0
2023-03-13T02:35:21.701Z,0.5
2023-03-13T02:40:21.173Z,4.0
2023-03-13T02:45:20.808Z,1.4
2023-03-13T03:00:19.615Z,0.5
2023-03-13T03:05:19.170Z,4.8
2023-03-13T03:10:18.888Z,3.4
2023-03-13T03:15:18.358Z,4.7
2023-03-13T03:20:17.988Z,1.4
2023-03-13T03:25:17.690Z,3.0
2023-03-13T03:30:17.293Z,3.4
2023-03-13T03:35:16.902Z,0.7
2023-03-13T03:45:16.314Z,4.3
2023-03-13T03:50:15.788Z,1.8
2023-03-13T03:55:15.424Z,0.8
2023-03-13T04:00:15.064Z,1.3
2023-03-13T04:05:14.707Z,2.0
2023-03-13T04:10:14.270Z,5.6
2023-03-13T04:15:16.272Z,6.2
2023-03-13T04:20:13.566Z,5.0
2023-03-13T04:25:13.115Z,8.9
2023-03-13T04:30:12.633Z,8.9
2023-03-13T04:35:12.332Z,2.4
2023-03-13T04:40:11.868Z,3.4
2023-03-13T04:45:11.510Z,2.2
2023-03-13T04:50:11.278Z,3.0
2023-03-13T04:55:10.776Z,3.8
2023-03-13T05:05:09.953Z,1.5
2023-03-13T05:10:09.499Z,3.4
2023-03-13T05:15:09.078Z,8.9
2023-03-13T05:20:08.676Z,5.1
2023-03-13T05:25:08.517Z,8.8
2023-03-13T05:30:07.934Z,3.1
2023-03-13T05:35:07.532Z,5.0
2023-03-13T05:45:06.761Z,6.2
2023-03-13T05:50:06.297Z,9.0
2023-03-13T05:55:05.957Z,9.4
2023-03-13T06:00:05.505Z,5.2
2023-03-13T06:05:05.225Z,4.0
2023-03-13T06:10:04.841Z,9.1
2023-03-13T06:15:04.429Z,7.9
2023-03-13T06:20:03.940Z,4.8
2023-03-13T06:25:03.623Z,3.9
2023-03-13T06:30:03.173Z,9.5
2023-03-13T06:35:02.872Z,8.1
2023-03-13T06:40:02.424Z,8.6
2023-03-13T06:45:02.031Z,8.8
2023-03-13T06:50:01.519Z,11.6
2023-03-13T06:55:01.274Z,7.3
2023-03-13T07:00:00.700Z,15.2
2023-03-13T07:05:00.286Z,12.5
2023-03-13T07:09:59.794Z,9.6
2023-03-13T07:14:59.380Z,5.0
2023-03-13T07:19:58.936Z,5.1
2023-03-13T07:24:58.495Z,7.0
2023-03-13T07:29:57.980Z,10.2
2023-03-13T07:34:57.576Z,11.2
2023-03-13T07:39:57.062Z,14.4
2023-03-13T07:44:56.632Z,7.3
2023-03-13T07:49:56.299Z,16.9
2023-03-13T07:54:55.688Z,15.3
2023-03-13T07:59:55.242Z,7.4
2023-03-13T08:04:55.975Z,1.7
2023-03-13T08:09:54.414Z,11.0
2023-03-13T08:14:54.007Z,4.4
2023-03-13T08:19:53.606Z,17.8
2023-03-13T08:29:55.019Z,14.1
2023-03-13T08:34:52.285Z,9.4
2023-03-13T08:39:51.883Z,6.8
2023-03-13T08:44:51.438Z,12.8
2023-03-13T08:49:51.054Z,9.2
2023-03-13T08:54:50.562Z,11.2
2023-03-13T08:59:50.157Z,7.1
2023-03-13T09:04:49.782Z,6.5
2023-03-13T09:09:49.237Z,8.0
2023-03-13T09:14:48.768Z,16.0
2023-03-13T09:19:59.751Z,26.1
2023-03-13T09:24:47.906Z,14.9
2023-03-13T09:29:47.543Z,11.6
2023-03-13T09:39:46.889Z,12.3
2023-03-13T09:44:46.266Z,15.3
2023-03-13T09:49:45.825Z,10.5
2023-03-13T09:54:47.518Z,12.1
2023-03-13T09:59:44.961Z,8.3
2023-03-13T10:04:44.690Z,14.4
2023-03-13T10:09:44.303Z,15.3
2023-03-13T10:14:44.024Z,18.2
2023-03-13T10:19:45.559Z,11.7
2023-03-13T10:24:43.177Z,9.4
2023-03-13T10:29:43.272Z,12.4
2023-03-13T10:34:42.491Z,11.7
2023-03-13T10:39:42.213Z,10.8
2023-03-13T10:44:41.839Z,6.0
2023-03-13T10:49:41.603Z,6.0
2023-03-13T10:54:41.310Z,15.5
2023-03-13T10:59:40.940Z,12.4
2023-03-13T11:04:40.601Z,14.9
2023-03-13T11:09:40.276Z,16.9
2023-03-13T11:14:40.158Z,13.6
2023-03-13T11:24:39.493Z,13.6
2023-03-13T11:29:39.167Z,7.4
2023-03-13T11:34:38.837Z,17.1
2023-03-13T11:39:38.499Z,16.3
2023-03-13T11:44:38.425Z,18.9
2023-03-13T11:49:39.706Z,12.6
2023-03-13T11:54:37.768Z,13.9
2023-03-13T11:59:37.550Z,11.8
2023-03-13T12:09:37.149Z,18.4
2023-03-13T12:14:36.921Z,17.7
2023-03-13T12:19:36.737Z,18.4
2023-03-13T12:24:36.496Z,15.3
2023-03-13T12:29:36.279Z,10.6
2023-03-13T12:34:36.078Z,12.1
2023-03-13T12:39:35.871Z,11.7
2023-03-13T12:44:35.597Z,11.9
2023-03-13T12:49:35.457Z,13.0
2023-03-13T12:54:35.092Z,19.6
2023-03-13T12:59:34.937Z,11.6
2023-03-13T13:04:34.546Z,11.7
2023-03-13T13:09:34.262Z,21.9
2023-03-13T13:14:33.894Z,19.4
2023-03-13T13:19:33.616Z,18.9
2023-03-13T13:24:33.253Z,17.3
2023-03-13T13:34:32.623Z,21.1
2023-03-13T13:44:31.975Z,8.2
2023-03-13T13:49:31.622Z,19.8
2023-03-13T13:54:31.367Z,19.8
2023-03-13T13:59:30.981Z,20.4
2023-03-13T14:04:30.617Z,23.9
2023-03-13T14:09:30.313Z,9.2
2023-03-13T14:14:30.005Z,20.8
2023-03-13T14:19:29.648Z,7.2
2023-03-13T14:24:29.310Z,9.0
2023-03-13T14:29:29.018Z,10.9
2023-03-13T14:34:30.926Z,8.8
2023-03-13T14:39:30.693Z,12.5
2023-03-13T14:44:28.037Z,19.0
2023-03-13T14:49:27.675Z,11.3
2023-03-13T14:59:27.144Z,12.7
2023-03-13T15:04:26.924Z,8.8
2023-03-13T15:09:26.624Z,22.3
2023-03-13T15:14:26.330Z,15.8
2023-03-13T15:19:26.184Z,7.4
2023-03-13T15:24:25.961Z,12.5
2023-03-13T15:29:25.694Z,11.2
2023-03-13T15:34:25.526Z,13.8
2023-03-13T15:39:25.227Z,17.2
2023-03-13T15:44:24.917Z,13.5
2023-03-13T15:49:24.620Z,10.4
2023-03-13T15:54:24.321Z,10.8
2023-03-13T15:59:23.992Z,15.3
2023-03-13T16:09:23.500Z,9.3
2023-03-13T16:14:23.125Z,8.0
2023-03-13T16:19:22.868Z,14.5
2023-03-13T16:24:22.502Z,11.5
2023-03-13T16:29:22.229Z,7.3
2023-03-13T16:34:21.833Z,12.4
2023-03-13T16:39:21.568Z,4.4
2023-03-13T16:44:24.142Z,14.7
2023-03-13T16:49:20.810Z,10.5
2023-03-13T16:54:20.395Z,8.0
2023-03-13T16:59:20.060Z,3.2
2023-03-13T17:04:19.997Z,3.2
2023-03-13T17:09:19.331Z,8.9
2023-03-13T17:14:18.901Z,9.2
2023-03-13T17:19:18.548Z,12.5
2023-03-13T17:24:18.154Z,13.0
2023-03-13T17:29:17.801Z,9.1
2023-03-13T17:34:17.480Z,5.5
2023-03-13T17:39:17.057Z,6.3
2023-03-13T17:44:16.673Z,8.1
2023-03-13T17:49:16.329Z,11.9
2023-03-13T17:59:17.825Z,10.6
2023-03-13T18:04:15.183Z,4.7
2023-03-13T18:09:16.811Z,6.7
2023-03-13T18:14:16.444Z,10.1
2023-03-13T18:19:16.039Z,8.7
2023-03-13T18:24:13.671Z,5.5
2023-03-13T18:29:13.342Z,14.5
2023-03-13T18:34:12.916Z,7.7
2023-03-13T18:39:12.541Z,3.9
2023-03-13T18:44:13.200Z,5.5
2023-03-13T18:49:11.821Z,5.5
2023-03-13T18:54:11.481Z,4.0
2023-03-13T18:59:11.076Z,4.5
2023-03-13T19:04:10.819Z,2.8
2023-03-13T19:09:31.673Z,6.5
2023-03-13T19:14:09.986Z,8.2
2023-03-13T19:19:09.599Z,4.3
2023-03-13T19:24:09.261Z,6.9
2023-03-13T19:29:08.836Z,6.0
2023-03-13T19:34:10.799Z,5.3
2023-03-13T19:39:08.048Z,8.0
2023-03-13T19:44:07.664Z,9.8
2023-03-13T19:49:07.156Z,9.9
2023-03-13T19:54:08.671Z,8.0
2023-03-13T19:59:06.115Z,8.0
2023-03-13T20:04:05.953Z,5.6
2023-03-13T20:09:05.124Z,5.5
2023-03-13T20:14:04.709Z,7.4
2023-03-13T20:19:04.187Z,7.1
2023-03-13T20:24:03.817Z,10.9
2023-03-13T20:29:03.324Z,38.8
2023-03-13T20:34:03.004Z,60.2
2023-03-13T20:39:02.400Z,104.3
2023-03-13T20:44:02.035Z,114.4
2023-03-13T20:49:01.593Z,146.2
2023-03-13T20:54:03.430Z,63.7
2023-03-13T20:59:00.713Z,118.9
2023-03-13T21:04:00.359Z,173.7
2023-03-13T21:08:59.914Z,162.2
2023-03-13T21:13:59.523Z,96.7
2023-03-13T21:18:59.071Z,147.8
2023-03-13T21:23:58.688Z,93.6
2023-03-13T21:28:58.214Z,69.1
2023-03-13T21:33:57.760Z,93.1
2023-03-13T21:38:57.369Z,94.2
2023-03-13T21:43:59.031Z,49.3
2023-03-13T21:48:56.566Z,90.4
2023-03-13T21:53:56.222Z,55.5
2023-03-13T21:58:55.791Z,83.5
2023-03-13T22:03:55.489Z,39.3
2023-03-13T22:08:57.293Z,46.4
2023-03-13T22:13:56.596Z,22.9
2023-03-13T22:18:54.153Z,22.9
2023-03-13T22:23:53.735Z,23.1
2023-03-13T22:28:53.286Z,11.6
2023-03-13T22:33:52.846Z,65.5
2023-03-13T22:38:52.421Z,203.9
2023-03-13T22:43:52.041Z,369.5
2023-03-13T22:48:51.558Z,176.8
2023-03-13T22:53:51.047Z,269.2
2023-03-13T22:58:52.620Z,245.0
2023-03-13T23:03:50.263Z,245.0
2023-03-13T23:08:49.738Z,199.0
2023-03-13T23:13:51.520Z,319.2
2023-03-13T23:18:48.934Z,159.8
2023-03-13T23:23:48.522Z,37.0
2023-03-13T23:28:48.046Z,17.0
2023-03-13T23:33:47.817Z,79.5
2023-03-13T23:38:47.091Z,41.6
2023-03-13T23:43:46.581Z,27.4
2023-03-13T23:48:46.182Z,19.8
2023-03-13T23:53:45.598Z,19.1
2023-03-13T23:58:45.070Z,19.1
